Aérodrome :
LOGIN :

S'inscrire | Disclaimer

   EN    FR    IT 

 










Légende :    VFR   VFR Marginal   IFR   IFR Intensif   IFR Très Intensif
Visi : 
Plafond : 
>= 8 km
>= 3000ft
5 à 8 km
1000 à 3000 ft
1500m à 5 km
500 à 1000 ft
800 à 1500m
200 à 500 ft
< 800m
< 200 ft
Symboles :   Orages  Brouillard  Fortes neiges  Fortes précipitations  Vent > 20 kt
SIGMETs :   Divers  Orages  Givrage  Turbulence  Onde Orograph.  Cendres Volcan.







- Altitude de l'aérodrome : 424 ft
- Code IATA : QGY


LHPR - Györ Per

DERNIER METAR :
  • 221645Z AUTO 25004KT 9000 NCD 09/05 Q1025 RMK BLU

METARs EXPIRÉS :
  • 221615Z AUTO 25005KT 9000 NCD 10/06 Q1024 RMK BLU
  • 221545Z 24004KT 200V260 CAVOK 10/06 Q1024 RMK BLU
  • 221515Z 26004KT CAVOK 12/06 Q1024 RMK BLU
  • 221445Z 28006KT CAVOK 12/06 Q1024 RMK BLU
  • 221415Z 28006KT CAVOK 12/06 Q1024 RMK BLU
  • 221345Z 27005KT CAVOK 12/06 Q1025 RMK BLU

TAF TAF LHPR
Valide du 22 à 15h jusqu'au 23 à 00h UTC


221415Z 2215/2224 27005KT CAVOK
Pas de NOTAMs connus pour ce terrain.



MET'MAP, la Météo Aéronautique d'un coup d'oeil ! - Copyright ORBIFLY Décembre 2007 - Disclaimer

ORBIFLY MET'MAP TEAM :

Programmation & Développement : Alexandra Zaïnal
Conception & Développement : Baudouin d'Aumeries
Co-Programmation & Développement : Marc-Olivier Méhu
Soutien technique & logistique : Manuel Goepfert

Contact : metmap@orbifly.com




SOURCES & CREDITS :

   NOAA